Time;durP1;ratioP1;P1;durP2;ratioP2;P2;SDS_P1;SDS_P2;PMS_P1;PMS_P2;Temp;Humidity;BMP_temperature;BMP_pressure;BME280_temperature;BME280_humidity;BME280_pressure;Samples;Min_cycle;Max_cycle;Signal;HPM_P1;HPM_P2
2022/06/14 00:00:54;;;;;;;;;;;25.90;93.80;;;;;;5005727;28;24073;-42
2022/06/14 00:03:22;;;;;;;;;;;26.00;93.80;;;;;;5006835;28;19906;-43
2022/06/14 00:05:48;;;;;;;;;;;25.90;93.70;;;;;;5007191;28;19906;-45
2022/06/14 00:08:14;;;;;;;;;;;25.90;93.60;;;;;;5006726;28;24072;-47
2022/06/14 00:10:41;;;;;;;;;;;25.90;93.80;;;;;;5006963;28;24101;-47
2022/06/14 00:13:08;;;;;;;;;;;25.90;93.80;;;;;;5006875;28;20262;-45
2022/06/14 00:15:34;;;;;;;;;;;25.90;93.80;;;;;;5006937;28;24097;-47
2022/06/14 00:18:00;;;;;;;;;;;25.80;94.00;;;;;;5000954;28;19910;-46
2022/06/14 00:20:27;;;;;;;;;;;25.80;93.80;;;;;;4996584;28;20220;-43
2022/06/14 00:22:53;;;;;;;;;;;25.80;94.00;;;;;;5006220;28;20097;-42
2022/06/14 00:25:40;;;;;;;;;;;25.80;93.70;;;;;;5005826;28;24081;-48
2022/06/14 00:28:08;;;;;;;;;;;25.80;93.70;;;;;;4987090;28;19910;-44
2022/06/14 00:30:35;;;;;;;;;;;25.70;93.60;;;;;;4986476;28;20216;-42
2022/06/14 00:33:01;;;;;;;;;;;25.70;93.60;;;;;;4995264;28;19910;-45
2022/06/14 00:35:27;;;;;;;;;;;25.80;93.60;;;;;;5006576;28;19921;-46
2022/06/14 00:37:54;;;;;;;;;;;25.70;93.50;;;;;;5004755;28;19910;-47
2022/06/14 00:40:22;;;;;;;;;;;25.80;93.70;;;;;;4988607;28;19988;-42
2022/06/14 00:42:49;;;;;;;;;;;25.80;93.80;;;;;;4999093;28;20198;-43
2022/06/14 00:45:15;;;;;;;;;;;25.70;93.90;;;;;;5006366;28;19937;-49
2022/06/14 00:47:47;;;;;;;;;;;25.70;94.10;;;;;;5005884;28;20125;-41
2022/06/14 00:50:26;;;;;;;;;;;25.70;93.90;;;;;;5006126;28;19933;-48
2022/06/14 00:53:14;;;;;;;;;;;25.70;93.90;;;;;;5005591;28;19906;-42
2022/06/14 00:55:42;;;;;;;;;;;25.70;93.80;;;;;;5006195;28;19996;-42
2022/06/14 00:58:14;;;;;;;;;;;25.60;93.80;;;;;;5005555;28;24101;-43
2022/06/14 01:00:46;;;;;;;;;;;25.60;93.70;;;;;;5006627;28;24054;-42
2022/06/14 01:03:20;;;;;;;;;;;25.60;93.80;;;;;;5005870;28;19945;-43
2022/06/14 01:06:07;;;;;;;;;;;25.60;93.90;;;;;;5005703;28;24071;-40
2022/06/14 01:08:35;;;;;;;;;;;25.50;94.00;;;;;;5005302;28;20225;-49
2022/06/14 01:11:02;;;;;;;;;;;25.50;94.10;;;;;;5006042;28;19906;-46
2022/06/14 01:13:28;;;;;;;;;;;25.50;94.20;;;;;;5004996;28;19909;-45
2022/06/14 01:15:55;;;;;;;;;;;25.40;94.50;;;;;;5004944;28;24062;-41
2022/06/14 01:18:22;;;;;;;;;;;25.40;94.90;;;;;;5005796;28;20001;-45
2022/06/14 01:20:48;;;;;;;;;;;25.40;94.60;;;;;;5005786;28;19909;-41
2022/06/14 01:23:16;;;;;;;;;;;25.40;94.50;;;;;;5005370;28;19906;-42
2022/06/14 01:25:53;;;;;;;;;;;25.40;94.30;;;;;;5005436;28;19912;-48
2022/06/14 01:28:20;;;;;;;;;;;25.40;94.10;;;;;;5005305;28;19917;-45
2022/06/14 01:30:48;;;;;;;;;;;25.40;94.40;;;;;;5005702;28;19917;-49
2022/06/14 01:33:23;;;;;;;;;;;25.40;94.50;;;;;;5005755;28;25101;-46
2022/06/14 01:35:53;;;;;;;;;;;25.40;94.60;;;;;;5005386;28;19917;-41
2022/06/14 01:38:19;;;;;;;;;;;25.40;94.60;;;;;;5005517;28;20241;-40
2022/06/14 01:41:06;;;;;;;;;;;25.40;94.50;;;;;;5005463;28;19906;-45
2022/06/14 01:43:32;;;;;;;;;;;25.40;94.70;;;;;;5005453;28;25124;-44
2022/06/14 01:46:11;;;;;;;;;;;25.40;94.90;;;;;;5005365;28;19902;-49
2022/06/14 01:48:38;;;;;;;;;;;25.30;94.70;;;;;;5005383;28;19913;-48
2022/06/14 01:53:50;;;;;;;;;;;25.30;94.50;;;;;;5004932;28;24108;-44
2022/06/14 01:56:20;;;;;;;;;;;25.30;94.60;;;;;;5005586;28;20197;-43
2022/06/14 01:59:04;;;;;;;;;;;25.30;94.70;;;;;;5004839;28;20217;-43
2022/06/14 02:01:51;;;;;;;;;;;25.30;94.80;;;;;;5005147;28;19914;-43
2022/06/14 02:04:39;;;;;;;;;;;25.30;95.00;;;;;;5004223;28;19902;-44
2022/06/14 02:07:11;;;;;;;;;;;25.30;95.00;;;;;;5004896;28;24056;-44
2022/06/14 02:09:46;;;;;;;;;;;25.30;95.00;;;;;;5004581;28;19937;-42
2022/06/14 02:12:14;;;;;;;;;;;25.20;95.00;;;;;;5004149;28;24117;-44
2022/06/14 02:14:49;;;;;;;;;;;25.20;95.20;;;;;;5004740;28;24112;-43
2022/06/14 02:17:24;;;;;;;;;;;25.20;95.00;;;;;;5004781;28;20101;-48
2022/06/14 02:19:59;;;;;;;;;;;25.10;95.10;;;;;;5004139;28;19902;-47
2022/06/14 02:22:46;;;;;;;;;;;25.20;95.00;;;;;;5004040;28;20136;-47
2022/06/14 02:25:17;;;;;;;;;;;25.20;95.10;;;;;;5004269;28;20081;-46
2022/06/14 02:27:59;;;;;;;;;;;25.20;95.20;;;;;;5004634;28;19910;-53
2022/06/14 02:30:30;;;;;;;;;;;25.20;95.30;;;;;;5004375;28;19964;-42
2022/06/14 02:33:01;;;;;;;;;;;25.10;95.20;;;;;;5004367;28;19906;-45
2022/06/14 02:35:29;;;;;;;;;;;25.10;95.30;;;;;;5004628;28;19905;-44
2022/06/14 02:38:02;;;;;;;;;;;25.10;95.10;;;;;;5004174;28;19913;-43
2022/06/14 02:40:38;;;;;;;;;;;25.10;95.20;;;;;;5004882;28;19916;-43
2022/06/14 02:43:12;;;;;;;;;;;25.20;95.20;;;;;;5004629;28;19906;-50
2022/06/14 02:45:42;;;;;;;;;;;25.20;95.30;;;;;;5004615;28;24066;-45
2022/06/14 02:48:27;;;;;;;;;;;25.20;95.20;;;;;;5004219;28;19913;-49
2022/06/14 02:50:53;;;;;;;;;;;25.20;95.20;;;;;;5004639;28;24084;-45
2022/06/14 02:53:30;;;;;;;;;;;25.20;95.40;;;;;;5004576;28;19964;-48
2022/06/14 02:56:02;;;;;;;;;;;25.10;95.60;;;;;;5004922;28;19906;-52
2022/06/14 02:58:32;;;;;;;;;;;25.20;95.60;;;;;;5004766;28;20136;-53
2022/06/14 03:01:01;;;;;;;;;;;25.20;95.50;;;;;;5005047;28;19910;-46
2022/06/14 03:03:27;;;;;;;;;;;25.30;95.50;;;;;;5004606;28;25096;-48
2022/06/14 03:06:06;;;;;;;;;;;25.30;95.50;;;;;;5005034;28;19953;-49
2022/06/14 03:08:46;;;;;;;;;;;25.30;95.50;;;;;;5004313;28;19913;-46
2022/06/14 03:11:21;;;;;;;;;;;25.40;95.50;;;;;;5005031;28;19968;-47
2022/06/14 03:13:56;;;;;;;;;;;25.40;95.40;;;;;;5004222;28;24120;-53
2022/06/14 03:16:24;;;;;;;;;;;25.40;95.40;;;;;;5004456;28;19972;-54
2022/06/14 03:19:04;;;;;;;;;;;25.40;95.40;;;;;;5004478;28;19909;-46
2022/06/14 03:21:35;;;;;;;;;;;25.40;95.40;;;;;;5004487;28;19914;-46
2022/06/14 03:24:05;;;;;;;;;;;25.40;95.40;;;;;;5004205;28;24066;-48
2022/06/14 03:26:46;;;;;;;;;;;25.40;95.40;;;;;;5004520;28;24068;-51
2022/06/14 03:29:19;;;;;;;;;;;25.40;95.40;;;;;;5003777;28;19902;-48
2022/06/14 03:31:58;;;;;;;;;;;25.50;95.40;;;;;;5004019;28;24079;-51
2022/06/14 03:34:42;;;;;;;;;;;25.50;95.30;;;;;;5005030;28;19917;-50
2022/06/14 03:37:09;;;;;;;;;;;25.50;95.30;;;;;;5007934;28;19914;-50
2022/06/14 03:39:36;;;;;;;;;;;25.50;95.20;;;;;;5007478;28;24074;-49
2022/06/14 03:42:03;;;;;;;;;;;25.50;95.20;;;;;;5007603;28;19917;-50
2022/06/14 03:44:31;;;;;;;;;;;25.50;95.20;;;;;;5007905;28;19914;-51
2022/06/14 03:47:09;;;;;;;;;;;25.50;95.20;;;;;;5007646;28;20241;-46
2022/06/14 03:49:36;;;;;;;;;;;25.50;95.20;;;;;;5007633;28;19906;-47
2022/06/14 03:52:10;;;;;;;;;;;25.50;95.10;;;;;;5006570;28;19913;-49
2022/06/14 03:55:08;;;;;;;;;;;25.50;95.10;;;;;;5007345;28;24072;-46
2022/06/14 03:57:53;;;;;;;;;;;25.50;95.10;;;;;;4964594;28;19906;-48
2022/06/14 04:00:28;;;;;;;;;;;25.50;95.10;;;;;;5007908;28;19917;-51
2022/06/14 04:03:01;;;;;;;;;;;25.50;95.00;;;;;;5007149;28;24139;-48
2022/06/14 04:05:27;;;;;;;;;;;25.50;94.90;;;;;;5006794;28;19906;-50
2022/06/14 04:07:53;;;;;;;;;;;25.40;94.90;;;;;;5007241;28;25094;-47
2022/06/14 04:10:22;;;;;;;;;;;25.40;94.80;;;;;;5007436;28;19917;-45
2022/06/14 04:12:48;;;;;;;;;;;25.50;94.90;;;;;;5006779;28;19912;-45
2022/06/14 04:15:22;;;;;;;;;;;25.50;94.90;;;;;;5006738;28;19910;-51
2022/06/14 04:17:51;;;;;;;;;;;25.40;94.90;;;;;;5006981;28;24082;-48
2022/06/14 04:20:21;;;;;;;;;;;25.50;95.00;;;;;;5006381;28;25091;-48
2022/06/14 04:23:05;;;;;;;;;;;25.40;95.00;;;;;;5006621;28;20249;-47
2022/06/14 04:25:37;;;;;;;;;;;25.40;95.00;;;;;;5007140;28;19921;-46
2022/06/14 04:28:21;;;;;;;;;;;25.40;95.10;;;;;;5006734;28;24114;-46
2022/06/14 04:30:57;;;;;;;;;;;25.40;95.10;;;;;;5006537;28;19985;-56
2022/06/14 04:33:26;;;;;;;;;;;25.40;95.10;;;;;;5006534;28;24112;-45
2022/06/14 04:36:21;;;;;;;;;;;25.40;95.10;;;;;;5006769;28;24087;-46
2022/06/14 04:38:47;;;;;;;;;;;25.40;95.10;;;;;;4989766;28;24074;-52
2022/06/14 04:41:20;;;;;;;;;;;25.40;95.10;;;;;;5006900;28;19909;-48
2022/06/14 04:44:09;;;;;;;;;;;25.40;95.10;;;;;;5006451;28;19929;-46
2022/06/14 04:46:38;;;;;;;;;;;25.40;95.10;;;;;;4969482;28;20078;-46
2022/06/14 04:49:26;;;;;;;;;;;25.40;95.20;;;;;;5006551;28;19928;-48
2022/06/14 04:51:56;;;;;;;;;;;25.40;95.20;;;;;;5006566;28;19917;-47
2022/06/14 04:54:24;;;;;;;;;;;25.30;95.20;;;;;;5006042;28;20081;-45
2022/06/14 04:56:53;;;;;;;;;;;25.40;95.20;;;;;;5006074;28;20189;-49
2022/06/14 04:59:22;;;;;;;;;;;25.40;95.20;;;;;;5006046;28;24068;-52
2022/06/14 05:01:48;;;;;;;;;;;25.40;95.10;;;;;;5006040;28;19909;-55
2022/06/14 05:04:21;;;;;;;;;;;25.40;95.10;;;;;;5005813;28;19921;-50
2022/06/14 05:06:58;;;;;;;;;;;25.40;95.10;;;;;;5006200;28;20086;-46
2022/06/14 05:09:31;;;;;;;;;;;25.40;95.10;;;;;;5006140;28;20114;-48
2022/06/14 05:12:10;;;;;;;;;;;25.30;95.20;;;;;;5005974;28;19906;-46
2022/06/14 05:15:08;;;;;;;;;;;25.30;95.20;;;;;;5005869;28;20129;-47
2022/06/14 05:17:42;;;;;;;;;;;25.30;95.20;;;;;;4963234;28;19981;-50
2022/06/14 05:20:15;;;;;;;;;;;25.30;95.20;;;;;;5005514;28;19910;-50
2022/06/14 05:22:44;;;;;;;;;;;25.30;95.30;;;;;;5005649;28;24083;-49
2022/06/14 05:25:11;;;;;;;;;;;25.30;95.30;;;;;;5005807;28;20190;-48
2022/06/14 05:27:40;;;;;;;;;;;25.30;95.30;;;;;;5005445;28;19924;-46
2022/06/14 05:30:09;;;;;;;;;;;25.30;95.30;;;;;;5005549;28;24064;-45
2022/06/14 05:32:56;;;;;;;;;;;25.30;95.30;;;;;;5005442;28;20205;-46
2022/06/14 05:35:25;;;;;;;;;;;25.30;95.30;;;;;;5004770;28;20094;-46
2022/06/14 05:38:10;;;;;;;;;;;25.30;95.30;;;;;;5004774;28;24099;-46
2022/06/14 05:40:41;;;;;;;;;;;25.30;95.30;;;;;;5005640;28;19909;-48
2022/06/14 05:43:14;;;;;;;;;;;25.40;95.40;;;;;;5004998;28;19948;-55
2022/06/14 05:45:42;;;;;;;;;;;25.30;95.30;;;;;;5005426;28;19928;-49
2022/06/14 05:48:11;;;;;;;;;;;25.40;95.40;;;;;;5005264;28;19905;-50
2022/06/14 05:50:40;;;;;;;;;;;25.40;95.50;;;;;;5005262;28;19977;-49
2022/06/14 05:53:06;;;;;;;;;;;25.30;95.40;;;;;;5005522;28;20079;-46
2022/06/14 05:55:32;;;;;;;;;;;25.30;95.40;;;;;;5005633;28;24080;-48
2022/06/14 05:58:08;;;;;;;;;;;25.30;95.40;;;;;;5004323;28;20094;-52
2022/06/14 06:00:47;;;;;;;;;;;25.30;95.40;;;;;;5005279;28;19972;-56
2022/06/14 06:03:20;;;;;;;;;;;25.30;95.40;;;;;;5005237;28;20245;-46
2022/06/14 06:05:51;;;;;;;;;;;25.30;95.40;;;;;;5005772;28;24067;-46
2022/06/14 06:08:20;;;;;;;;;;;25.30;95.50;;;;;;5005063;28;19910;-46
2022/06/14 06:10:49;;;;;;;;;;;25.30;95.50;;;;;;5005174;28;19905;-47
2022/06/14 06:13:30;;;;;;;;;;;25.30;95.50;;;;;;5004974;28;19905;-47
2022/06/14 06:16:10;;;;;;;4.60;0.60;;;25.30;95.60;;;;;;5004768;28;24103;-48
2022/06/14 06:19:00;;;;;;;3.58;0.47;;;25.30;95.50;;;;;;5004683;28;20225;-46
2022/06/14 06:22:06;;;;;;;3.85;0.55;;;25.30;95.50;;;;;;5004582;28;20318;-53
2022/06/14 06:24:36;;;;;;;;;;;25.30;95.50;;;;;;5004843;28;20341;-57
2022/06/14 06:27:12;;;;;;;;;;;25.30;95.50;;;;;;5004518;28;19906;-46
2022/06/14 06:29:56;;;;;;;;;;;25.30;95.40;;;;;;5004490;28;20182;-49
2022/06/14 06:32:23;;;;;;;;;;;25.30;95.40;;;;;;5004410;28;19909;-51
2022/06/14 06:34:49;;;;;;;;;;;25.30;95.40;;;;;;5004403;28;19909;-47
2022/06/14 06:37:15;;;;;;;;;;;25.30;95.40;;;;;;5004638;28;24066;-45
2022/06/14 06:39:41;;;;;;;;;;;25.30;95.40;;;;;;5004604;28;19905;-45
2022/06/14 06:42:26;;;;;;;;;;;25.30;95.40;;;;;;5004261;28;19941;-53
2022/06/14 06:44:58;;;;;;;;;;;25.30;95.50;;;;;;5004410;28;24082;-46
2022/06/14 06:47:29;;;;;;;;;;;25.30;95.60;;;;;;5004723;28;24070;-48
2022/06/14 06:49:58;;;;;;;;;;;25.20;95.60;;;;;;5004702;28;20095;-46
2022/06/14 06:52:30;;;;;;;;;;;25.20;95.70;;;;;;5004407;28;24098;-45
2022/06/14 06:55:00;;;;;;;;;;;25.30;95.70;;;;;;5004360;28;19906;-50
2022/06/14 06:57:28;;;;;;;;;;;25.20;95.70;;;;;;5004667;28;19969;-45
2022/06/14 06:59:55;;;;;;;;;;;25.20;95.70;;;;;;5003992;28;19938;-45
2022/06/14 07:02:44;;;;;;;;;;;25.30;95.70;;;;;;5004015;28;19914;-48
2022/06/14 07:05:16;;;;;;;;;;;25.20;95.60;;;;;;4994055;28;19906;-47
2022/06/14 07:07:47;;;;;;;;;;;25.20;95.70;;;;;;5004211;28;19913;-48
2022/06/14 07:10:16;;;;;;;;;;;25.20;95.70;;;;;;5006470;28;20059;-45
2022/06/14 07:12:45;;;;;;;;;;;25.20;95.70;;;;;;5008093;28;20190;-47
2022/06/14 07:15:14;;;;;;;;;;;25.20;95.70;;;;;;5008259;28;19941;-45
2022/06/14 07:17:46;;;;;;;;;;;25.20;95.70;;;;;;5007837;28;19980;-48
2022/06/14 07:20:15;;;;;;;;;;;25.20;95.80;;;;;;5007518;28;24092;-45
2022/06/14 07:22:44;;;;;;;;;;;25.20;95.70;;;;;;5008612;28;19948;-45
2022/06/14 07:25:19;;;;;;;;;;;25.20;95.70;;;;;;5008169;28;19964;-49
2022/06/14 07:28:05;;;;;;;;;;;25.10;95.70;;;;;;5008245;28;19944;-48
2022/06/14 07:30:34;;;;;;;;;;;25.20;95.80;;;;;;4994436;28;19945;-46
2022/06/14 07:33:00;;;;;;;;;;;25.10;95.80;;;;;;5007554;28;25104;-48
2022/06/14 07:35:31;;;;;;;;;;;25.10;95.80;;;;;;5008182;28;19909;-46
2022/06/14 07:38:02;;;;;;;;;;;25.10;95.90;;;;;;5007400;28;25083;-51
2022/06/14 07:40:28;;;;;;;;;;;25.10;95.90;;;;;;5008185;28;19906;-50
2022/06/14 07:42:59;;;;;;;;;;;25.20;95.90;;;;;;5007564;28;20105;-45
2022/06/14 07:45:31;;;;;;;;;;;25.10;95.80;;;;;;5007666;28;20078;-46
2022/06/14 07:47:58;;;;;;;;;;;25.10;95.90;;;;;;5007617;28;20005;-50
2022/06/14 07:50:35;;;;;;;;;;;25.10;95.90;;;;;;5007715;28;19908;-43
2022/06/14 07:53:05;;;;;;;;;;;25.20;95.90;;;;;;5007211;28;20235;-44
2022/06/14 07:55:38;;;;;;;;;;;25.20;95.90;;;;;;5007839;28;20117;-48
2022/06/14 07:58:06;;;;;;;;;;;25.10;95.90;;;;;;5007485;28;19954;-48
2022/06/14 08:03:39;;;;;;;;;;;25.10;95.90;;;;;;5007191;28;19956;-45
2022/06/14 08:06:08;;;;;;;;;;;25.20;95.90;;;;;;4967274;28;19905;-47
2022/06/14 08:08:36;;;;;;;;;;;25.20;95.90;;;;;;5006996;28;19941;-54
2022/06/14 08:11:08;;;;;;;;;;;25.20;95.90;;;;;;5007820;28;19964;-46
2022/06/14 08:13:37;;;;;;;;;;;25.20;95.90;;;;;;5007299;28;19916;-46
2022/06/14 08:16:05;;;;;;;;;;;25.20;95.90;;;;;;5007618;28;24079;-46
2022/06/14 08:18:37;;;;;;;;;;;25.20;96.00;;;;;;5007058;28;24074;-46
2022/06/14 08:21:07;;;;;;;;;;;25.20;95.90;;;;;;5006457;28;24084;-48
2022/06/14 08:23:52;;;;;;;;;;;25.20;95.90;;;;;;5006792;28;19921;-50
2022/06/14 08:26:44;;;;;;;;;;;25.20;96.00;;;;;;5006745;28;24094;-51
2022/06/14 08:29:14;;;;;;;;;;;25.20;96.00;;;;;;5003045;28;19914;-54
2022/06/14 08:31:50;;;;;;;;;;;25.10;96.00;;;;;;5006488;28;19975;-44
2022/06/14 08:34:25;;;;;;;;;;;25.10;96.00;;;;;;5006707;28;24070;-44
2022/06/14 08:37:18;;;;;;;;;;;25.10;96.10;;;;;;5006294;28;25108;-47
2022/06/14 08:39:46;;;;;;;;;;;25.10;96.00;;;;;;5003023;28;19912;-45
2022/06/14 08:42:24;;;;;;;;;;;25.10;96.20;;;;;;5006377;28;19925;-45
2022/06/14 08:44:57;;;;;;;;;;;25.10;96.00;;;;;;5006762;28;20145;-47
2022/06/14 08:47:36;;;;;;;;;;;25.10;96.10;;;;;;5006114;28;19910;-49
2022/06/14 08:50:10;;;;;;;;;;;25.10;96.20;;;;;;5006519;28;19963;-50
2022/06/14 08:52:54;;;;;;;;;;;25.10;96.20;;;;;;5006396;28;19905;-44
2022/06/14 08:55:29;;;;;;;;;;;25.10;96.20;;;;;;5006680;28;19928;-48
2022/06/14 08:58:11;;;;;;;;;;;25.10;96.30;;;;;;5005859;28;19913;-46
2022/06/14 09:00:40;;;;;;;;;;;25.10;96.30;;;;;;5006378;28;25118;-48
2022/06/14 09:03:23;;;;;;;;;;;25.10;96.30;;;;;;5006091;28;19906;-46
2022/06/14 09:06:07;;;;;;;;;;;25.10;96.30;;;;;;5006665;28;19906;-43
2022/06/14 09:08:37;;;;;;;;;;;25.10;96.30;;;;;;5005505;28;24071;-46
2022/06/14 09:11:19;;;;;;;;;;;25.10;96.30;;;;;;5006192;28;19909;-46
2022/06/14 09:13:45;;;;;;;;;;;25.10;96.20;;;;;;5005991;28;19905;-53
2022/06/14 09:16:17;;;;;;;;;;;25.10;96.20;;;;;;5006332;28;20096;-48
2022/06/14 09:18:49;;;;;;;;;;;25.10;96.20;;;;;;5006024;28;24111;-47
2022/06/14 09:21:30;;;;;;;;;;;25.10;96.20;;;;;;5005826;28;20017;-56
2022/06/14 09:24:14;;;;;;;;;;;25.10;96.20;;;;;;5005489;28;19941;-46
2022/06/14 09:26:46;;;;;;;;;;;25.10;96.30;;;;;;5005731;28;19905;-49
2022/06/14 09:29:12;;;;;;;;;;;25.10;96.30;;;;;;5006010;28;24050;-49
2022/06/14 09:31:38;;;;;;;;;;;25.10;96.30;;;;;;5005134;28;19922;-48
2022/06/14 09:34:13;;;;;;;;;;;25.10;96.40;;;;;;5005153;28;24100;-50
2022/06/14 09:36:40;;;;;;;;;;;25.10;96.40;;;;;;5005577;28;19905;-51
2022/06/14 09:39:24;;;;;;;;;;;25.10;96.40;;;;;;5005051;28;20066;-51
2022/06/14 09:42:08;;;;;;;;;;;25.10;96.40;;;;;;5005548;28;19910;-49
2022/06/14 09:44:34;;;;;;;;;;;25.10;96.50;;;;;;5005487;28;20062;-48
2022/06/14 09:47:16;;;;;;;;;;;25.10;96.50;;;;;;5005238;28;19905;-47
2022/06/14 09:49:54;;;;;;;;;;;25.00;96.40;;;;;;5005208;28;24068;-50
2022/06/14 09:52:39;;;;;;;;;;;25.00;96.40;;;;;;5005022;28;25105;-49
2022/06/14 09:55:14;;;;;;;;;;;25.00;96.40;;;;;;5005314;28;19906;-49
2022/06/14 09:57:46;;;;;;;;;;;25.10;96.50;;;;;;5005403;28;19906;-49
2022/06/14 10:00:19;;;;;;;;;;;25.00;96.40;;;;;;5005435;28;24054;-46
2022/06/14 10:02:54;;;;;;;;;;;25.10;96.40;;;;;;5004684;28;19957;-46
2022/06/14 10:05:33;;;;;;;;;;;25.10;96.50;;;;;;5005158;28;19909;-50
2022/06/14 10:08:09;;;;;;;;;;;25.10;96.50;;;;;;5005069;28;19905;-53
2022/06/14 10:10:35;;;;;;;;;;;25.10;96.50;;;;;;5005038;28;19905;-50
2022/06/14 10:13:05;;;;;;;;;;;25.00;96.50;;;;;;5005058;28;19929;-49
2022/06/14 10:15:40;;;;;;;;;;;25.10;96.60;;;;;;5005421;28;20125;-51
2022/06/14 10:18:30;;;;;;;;;;;25.10;96.60;;;;;;5004987;28;24138;-59
2022/06/14 10:20:57;;;;;;;;;;;25.10;96.50;;;;;;5005086;28;19952;-48
2022/06/14 10:23:32;;;;;;;;;;;25.00;96.70;;;;;;5004602;28;19906;-55
2022/06/14 10:29:08;;;;;;;;;;;25.00;96.40;;;;;;5004398;28;24063;-50
2022/06/14 10:31:47;;;;;;;;;;;25.10;96.50;;;;;;5004220;28;20201;-52
2022/06/14 10:34:19;;;;;;;;;;;25.00;96.50;;;;;;5004371;28;20185;-46
2022/06/14 10:36:52;;;;;;;;;;;25.00;96.50;;;;;;5004170;28;24094;-48
2022/06/14 10:39:36;;;;;;;;;;;25.10;96.50;;;;;;5004326;28;19916;-53
2022/06/14 10:42:12;;;;;;;;;;;25.00;96.50;;;;;;5004095;28;20133;-49
2022/06/14 10:44:51;;;;;;;;;;;25.00;96.50;;;;;;5003857;28;19912;-47
2022/06/14 10:47:35;;;;;;;;;;;25.00;96.50;;;;;;5004853;28;24056;-47
2022/06/14 10:50:20;;;;;;;;;;;25.00;96.50;;;;;;5004555;28;19912;-46
2022/06/14 10:52:49;;;;;;;;;;;25.00;96.60;;;;;;5004323;28;20248;-45
2022/06/14 10:55:34;;;;;;;;;;;25.00;96.50;;;;;;5004739;28;20063;-45
2022/06/14 10:58:03;;;;;;;;;;;25.00;96.60;;;;;;5003987;28;19973;-49
2022/06/14 11:00:35;;;;;;;;;;;25.00;96.50;;;;;;5004858;28;19909;-51
2022/06/14 11:03:09;;;;;;;;;;;25.00;96.50;;;;;;5004324;28;24068;-47
2022/06/14 11:05:41;;;;;;;;;;;25.00;96.50;;;;;;5004604;28;19944;-49
2022/06/14 11:08:13;;;;;;;;;;;25.00;96.40;;;;;;5004424;28;24070;-54
2022/06/14 11:10:45;;;;;;;;;;;25.00;96.30;;;;;;5004876;28;19980;-46
2022/06/14 11:13:23;;;;;;;;;;;25.00;96.30;;;;;;5004224;28;24082;-45
2022/06/14 11:15:52;;;;;;;;;;;25.00;96.30;;;;;;5004214;28;19906;-45
2022/06/14 11:18:21;;;;;;;;;;;25.00;96.40;;;;;;5004447;28;19905;-50
2022/06/14 11:20:56;;;;;;;;;;;25.00;96.40;;;;;;5004701;28;24067;-43
2022/06/14 11:23:27;;;;;;;;;;;25.00;96.40;;;;;;5003825;28;20098;-48
2022/06/14 11:25:53;;;;;;;;;;;25.00;96.40;;;;;;5004387;28;24074;-52
2022/06/14 11:28:22;;;;;;;;;;;25.00;96.50;;;;;;5004335;28;20110;-49
2022/06/14 11:30:53;;;;;;;;;;;25.00;96.40;;;;;;5004601;28;19936;-52
2022/06/14 11:33:37;;;;;;;;;;;25.10;96.40;;;;;;5004441;28;19973;-45
2022/06/14 11:36:19;;;;;;;;;;;25.00;96.30;;;;;;5004912;28;24083;-47
2022/06/14 11:38:56;;;;;;;;;;;25.00;96.30;;;;;;5004410;28;20177;-49
2022/06/14 11:41:25;;;;;;;;;;;25.00;96.30;;;;;;5004105;28;19914;-47
2022/06/14 11:44:09;;;;;;;;;;;25.00;96.20;;;;;;5003449;28;19909;-46
2022/06/14 11:46:44;;;;;;;;;;;25.00;96.20;;;;;;5002343;28;24062;-51
2022/06/14 11:49:24;;;;;;;;;;;25.10;96.20;;;;;;5002107;28;19902;-46
2022/06/14 11:51:59;;;;;;;;;;;25.10;96.20;;;;;;5002351;28;19951;-47
2022/06/14 11:54:27;;;;;;;;;;;25.10;96.20;;;;;;5002456;28;19948;-47
2022/06/14 11:57:01;;;;;;;;;;;25.10;96.30;;;;;;5004136;28;24084;-48
2022/06/14 11:59:42;;;;;;;;;;;25.10;96.30;;;;;;5007317;28;24102;-49
2022/06/14 12:02:36;;;;;;;;;;;25.00;96.20;;;;;;5007449;28;19909;-47
2022/06/14 12:05:20;;;;;;;;;;;25.10;96.30;;;;;;5007426;28;19906;-50
2022/06/14 12:08:01;;;;;;;;;;;25.10;96.40;;;;;;5007394;28;19913;-49
2022/06/14 12:10:33;;;;;;;;;;;25.10;96.40;;;;;;5007861;28;19950;-48
2022/06/14 12:13:14;;;;;;;;;;;25.10;96.40;;;;;;5008150;28;20005;-46
2022/06/14 12:15:59;;;;;;;;;;;25.10;96.40;;;;;;5007437;28;19977;-50
2022/06/14 12:18:27;;;;;;;;;;;25.10;96.50;;;;;;5007017;28;19965;-53
2022/06/14 12:21:00;;;;;;;;;;;25.00;96.40;;;;;;5007251;28;19937;-45
2022/06/14 12:23:37;;;;;;;;;;;25.00;96.50;;;;;;5006810;28;19948;-47
2022/06/14 12:26:36;;;;;;;;;;;25.00;96.60;;;;;;5008090;28;19912;-47
2022/06/14 12:29:18;;;;;;;;;;;25.00;96.60;;;;;;5006913;28;19905;-56
2022/06/14 12:31:45;;;;;;;;;;;25.00;96.60;;;;;;5006832;28;19917;-48
2022/06/14 12:34:16;;;;;;;;;;;25.00;96.70;;;;;;5006752;28;24059;-49
2022/06/14 12:36:54;;;;;;;;;;;25.00;96.70;;;;;;5006802;28;19909;-50
2022/06/14 12:39:24;;;;;;;;;;;25.00;96.70;;;;;;5005879;28;20089;-49
2022/06/14 12:42:02;;;;;;;;;;;25.00;96.60;;;;;;5006366;28;24058;-50
2022/06/14 12:44:28;;;;;;;;;;;25.00;96.60;;;;;;5006209;28;24054;-54
2022/06/14 12:46:56;;;;;;;;;;;25.10;96.70;;;;;;5006886;28;20198;-50
2022/06/14 12:49:29;;;;;;;;;;;25.00;96.70;;;;;;5007128;28;24075;-54
2022/06/14 12:52:24;;;;;;;;;;;25.00;96.70;;;;;;5006214;28;19909;-50
2022/06/14 12:54:51;;;;;;;;;;;25.00;96.80;;;;;;4989745;28;19909;-46
2022/06/14 12:57:21;;;;;;;;;;;25.10;96.80;;;;;;5006532;28;19976;-46
2022/06/14 12:59:47;;;;;;;;;;;25.10;96.80;;;;;;5006812;28;19909;-45
2022/06/14 13:02:32;;;;;;;;;;;25.00;96.90;;;;;;5006039;28;24084;-46
2022/06/14 13:04:58;;;;;;;;;;;25.00;96.80;;;;;;5006070;28;19905;-49
2022/06/14 13:07:24;;;;;;;;;;;25.00;96.90;;;;;;5005966;28;19917;-47
2022/06/14 13:10:08;;;;;;;;;;;25.00;97.10;;;;;;5005989;28;19909;-52
2022/06/14 13:12:49;;;;;;;;;;;25.10;96.90;;;;;;5005704;28;19937;-49
2022/06/14 13:15:16;;;;;;;;;;;25.10;96.90;;;;;;5006130;28;19981;-49
2022/06/14 13:17:54;;;;;;;;;;;25.10;97.00;;;;;;5006251;28;20213;-46
2022/06/14 13:20:26;;;;;;;;;;;25.10;97.00;;;;;;5006021;28;19912;-46
2022/06/14 13:23:04;;;;;;;;;;;25.10;96.90;;;;;;5006443;28;19909;-53
2022/06/14 13:25:45;;;;;;;;;;;25.10;97.00;;;;;;5005904;28;19944;-47
2022/06/14 13:28:30;;;;;;;;;;;25.10;97.00;;;;;;5005616;28;24075;-46
2022/06/14 13:31:08;;;;;;;;;;;25.10;97.00;;;;;;5005595;28;19914;-51
2022/06/14 13:33:37;;;;;;;;;;;25.10;96.90;;;;;;5005391;28;19906;-50
2022/06/14 13:36:22;;;;;;;;;;;25.10;97.00;;;;;;5006321;28;19905;-45
2022/06/14 13:38:52;;;;;;;;;;;25.10;97.00;;;;;;5005698;28;19906;-50
2022/06/14 13:41:27;;;;;;;;;;;25.20;97.00;;;;;;5006111;28;19932;-46
2022/06/14 13:44:12;;;;;;;;;;;25.20;97.00;;;;;;5006022;28;24055;-49
2022/06/14 13:46:51;;;;;;;;;;;25.20;97.00;;;;;;5005839;28;20042;-53
2022/06/14 13:49:22;;;;;;;;;;;25.20;96.90;;;;;;5005494;28;19913;-49
2022/06/14 13:51:49;;;;;;;;;;;25.20;96.90;;;;;;5005580;28;19929;-45
2022/06/14 13:54:35;;;;;;;;;;;25.20;96.80;;;;;;5005107;28;20136;-53
2022/06/14 13:57:19;;;;;;;;;;;25.20;96.90;;;;;;5004877;28;20042;-46
2022/06/14 13:59:47;;;;;;;;;;;25.30;96.90;;;;;;5005383;28;19968;-46
2022/06/14 14:02:23;;;;;;;;;;;25.30;96.90;;;;;;5004988;28;24060;-48
2022/06/14 14:05:15;;;;;;;;;;;25.20;96.90;;;;;;5005464;28;19909;-54
2022/06/14 14:08:03;;;;;;;;;;;25.30;96.60;;;;;;5000957;28;19912;-49
2022/06/14 14:10:29;;;;;;;;;;;25.20;96.30;;;;;;5005215;28;19912;-47
2022/06/14 14:13:08;;;;;;;;;;;25.20;96.70;;;;;;5005004;28;24076;-54
2022/06/14 14:15:35;;;;;;;;;;;25.20;96.70;;;;;;5005395;28;19905;-53
2022/06/14 14:18:12;;;;;;;;;;;25.20;96.70;;;;;;5003098;28;19905;-49
2022/06/14 14:20:51;;;;;;;;;;;25.20;96.60;;;;;;5003039;28;19948;-48
2022/06/14 14:23:17;;;;;;;;;;;25.30;96.60;;;;;;5004755;28;19977;-47
2022/06/14 14:25:46;;;;;;;;;;;25.30;96.60;;;;;;5005023;28;19968;-50
2022/06/14 14:28:13;;;;;;;;;;;25.30;96.60;;;;;;5004685;28;19906;-48
2022/06/14 14:30:42;;;;;;;;;;;25.40;96.60;;;;;;5004472;28;20161;-50
2022/06/14 14:33:27;;;;;;;;;;;25.40;96.50;;;;;;5004249;28;19905;-45
2022/06/14 14:35:56;;;;;;;;;;;25.40;96.50;;;;;;5004654;28;19906;-51
2022/06/14 14:38:27;;;;;;;;;;;25.40;96.50;;;;;;5004634;28;19973;-49
2022/06/14 14:43:42;;;;;;;;;;;25.40;96.30;;;;;;5004332;28;19945;-42
2022/06/14 14:46:11;;;;;;;;;;;25.50;96.40;;;;;;5004667;28;19909;-46
2022/06/14 14:48:54;;;;;;;;;;;25.50;96.20;;;;;;5003578;28;24053;-48
2022/06/14 14:51:20;;;;;;;;;;;25.60;96.30;;;;;;5004434;28;19973;-43
2022/06/14 14:53:46;;;;;;;;;;;25.50;96.00;;;;;;5004089;28;25041;-52
2022/06/14 14:56:24;;;;;;;;;;;25.60;96.20;;;;;;5004821;28;20081;-54
2022/06/14 14:58:50;;;;;;;;;;;25.60;96.20;;;;;;5003918;28;24114;-47
2022/06/14 15:07:33;;;;;;;;;;;25.70;96.10;;;;;;5004159;28;20093;-51
2022/06/14 15:10:08;;;;;;;;;;;25.70;96.20;;;;;;5004566;28;24107;-51
2022/06/14 15:12:36;;;;;;;;;;;25.70;96.00;;;;;;5004054;28;19941;-49